Time;durP1;ratioP1;P1;durP2;ratioP2;P2;SDS_P1;SDS_P2;PMS_P1;PMS_P2;Temp;Humidity;BMP_temperature;BMP_pressure;BME280_temperature;BME280_humidity;BME280_pressure;Samples;Min_cycle;Max_cycle;Signal;HPM_P1;HPM_P2
2022/10/01 00:02:08;;;;;;;1.33;1.30;;;;;;;11.82;95.92;95204.72;4395008;32;20193;-65
2022/10/01 00:04:36;;;;;;;1.60;1.60;;;;;;;11.95;96.16;95211.81;4388599;32;20207;-65
2022/10/01 00:07:08;;;;;;;1.90;1.80;;;;;;;11.88;96.35;95222.87;4396160;32;20271;-65
2022/10/01 00:09:33;;;;;;;1.03;1.03;;;;;;;11.87;96.46;95225.81;4388487;32;20181;-65
2022/10/01 00:12:00;;;;;;;1.03;1.03;;;;;;;11.95;96.14;95233.09;4385457;32;20322;-65
2022/10/01 00:14:26;;;;;;;1.93;1.83;;;;;;;11.94;96.00;95234.97;4398870;32;20239;-65
2022/10/01 00:16:53;;;;;;;1.50;1.50;;;;;;;11.92;96.24;95231.03;4388239;32;20196;-65
2022/10/01 00:19:18;;;;;;;1.60;1.50;;;;;;;11.84;96.39;95232.56;4358251;32;20207;-65
2022/10/01 00:21:45;;;;;;;1.07;1.07;;;;;;;11.87;96.85;95231.94;4370344;32;20180;-66
2022/10/01 00:24:11;;;;;;;1.50;1.40;;;;;;;11.81;96.73;95232.38;4379558;32;20266;-66
2022/10/01 00:26:38;;;;;;;1.03;1.03;;;;;;;11.72;97.57;95234.94;4398250;32;20177;-65
2022/10/01 00:29:13;;;;;;;1.10;1.10;;;;;;;11.78;97.37;95243.59;4362826;32;20248;-65
2022/10/01 00:31:40;;;;;;;1.60;1.50;;;;;;;11.84;97.16;95239.75;4366629;32;20228;-65
2022/10/01 00:34:07;;;;;;;1.90;1.80;;;;;;;11.81;97.40;95245.66;4362126;32;20184;-64
2022/10/01 00:36:33;;;;;;;1.97;1.47;;;;;;;11.75;97.76;95238.88;4380373;32;20185;-65
2022/10/01 00:39:00;;;;;;;1.80;1.70;;;;;;;11.88;97.39;95232.72;4383703;32;20184;-66
2022/10/01 00:41:30;;;;;;;2.20;2.00;;;;;;;11.72;97.51;95240.25;4368181;32;20181;-65
2022/10/01 00:43:59;;;;;;;3.53;3.33;;;;;;;11.67;97.88;95243.81;4370831;32;20193;-65
2022/10/01 00:46:33;;;;;;;2.30;2.10;;;;;;;11.73;97.81;95244.47;4375639;32;20216;-65
2022/10/01 00:49:08;;;;;;;2.57;2.47;;;;;;;11.63;98.14;95236.75;4378932;32;20226;-65
2022/10/01 00:51:39;;;;;;;2.37;2.27;;;;;;;11.61;98.24;95234.41;4381593;32;20255;-65
2022/10/01 00:54:12;;;;;;;2.53;2.30;;;;;;;11.64;98.56;95235.63;4393744;32;20200;-65
2022/10/01 00:56:38;;;;;;;1.80;1.70;;;;;;;11.69;98.45;95227.56;4383172;32;20204;-65
2022/10/01 00:59:05;;;;;;;2.77;2.57;;;;;;;11.80;98.06;95226.28;4378950;32;20185;-65
2022/10/01 01:01:35;;;;;;;2.83;2.63;;;;;;;11.71;97.97;95233.34;4374566;32;20206;-65
2022/10/01 01:04:00;;;;;;;3.00;2.57;;;;;;;11.71;97.94;95228.84;4379421;32;20267;-65
2022/10/01 01:06:27;;;;;;;2.43;2.33;;;;;;;11.74;97.91;95234.63;4391506;32;20219;-65
2022/10/01 01:08:55;;;;;;;4.03;3.00;;;;;;;11.64;98.24;95223.16;4395195;32;20185;-66
2022/10/01 01:11:36;;;;;;;3.40;3.20;;;;;;;11.53;98.16;95224.47;4388113;32;20303;-65
2022/10/01 01:14:07;;;;;;;2.97;2.87;;;;;;;11.66;98.30;95210.34;4395251;32;20202;-65
2022/10/01 01:16:58;;;;;;;3.27;3.07;;;;;;;11.40;98.91;95205.94;4389049;32;20229;-65
2022/10/01 01:19:51;;;;;;;3.13;2.93;;;;;;;11.45;98.92;95213.78;4387545;32;20188;-65
2022/10/01 01:22:23;;;;;;;3.10;2.90;;;;;;;11.56;98.87;95209.81;4388460;32;20286;-65
2022/10/01 01:25:17;;;;;;;2.63;2.50;;;;;;;11.55;98.46;95209.03;4389002;32;20183;-66
2022/10/01 01:27:49;;;;;;;3.57;3.37;;;;;;;11.60;97.88;95203.59;4388602;32;20252;-67
2022/10/01 01:30:17;;;;;;;2.57;2.47;;;;;;;11.64;97.70;95199.22;4391364;32;20228;-65
2022/10/01 01:33:05;;;;;;;3.17;2.97;;;;;;;11.74;97.56;95200.09;4386634;32;20183;-66
2022/10/01 01:35:41;;;;;;;2.50;2.40;;;;;;;11.84;97.21;95197.22;4363148;32;20319;-65
2022/10/01 01:38:23;;;;;;;3.83;3.63;;;;;;;11.77;96.96;95184.34;4391616;32;20250;-65
2022/10/01 01:40:55;;;;;;;3.87;3.43;;;;;;;11.86;96.93;95195.03;4392588;32;20176;-65
2022/10/01 01:43:25;;;;;;;3.20;3.00;;;;;;;11.98;96.09;95208.56;4372667;32;20204;-65
2022/10/01 01:45:55;;;;;;;3.00;2.90;;;;;;;11.82;96.25;95202.84;4394991;32;20215;-65
2022/10/01 01:48:23;;;;;;;3.20;3.00;;;;;;;11.86;96.41;95206.44;4397313;32;20204;-65
2022/10/01 01:51:10;;;;;;;2.90;2.53;;;;;;;11.76;96.76;95204.03;4389857;32;20293;-65
2022/10/01 01:53:35;;;;;;;2.50;2.40;;;;;;;11.56;97.26;95201.84;4370776;32;20319;-65
2022/10/01 01:56:08;;;;;;;3.33;3.23;;;;;;;11.57;97.39;95206.84;4383800;32;20192;-65
2022/10/01 01:58:34;;;;;;;2.57;2.47;;;;;;;11.52;97.57;95209.63;4377124;32;20192;-65
2022/10/01 02:01:03;;;;;;;2.63;2.43;;;;;;;11.43;98.36;95211.41;4370740;32;20313;-65
2022/10/01 02:03:33;;;;;;;3.67;2.83;;;;;;;11.35;98.50;95212.16;4379422;32;20214;-65
2022/10/01 02:06:28;;;;;;;2.50;2.40;;;;;;;11.27;99.22;95196.94;4396878;32;20188;-65
2022/10/01 02:09:28;;;;;;;2.53;2.43;;;;;;;11.30;99.28;95197.13;4368071;32;20232;-65
2022/10/01 02:12:14;;;;;;;3.50;3.00;;;;;;;11.36;98.74;95195.12;4380541;32;20207;-65
2022/10/01 02:14:55;;;;;;;2.77;2.60;;;;;;;11.32;98.53;95194.94;4377193;32;20207;-66
2022/10/01 02:17:51;;;;;;;2.10;2.00;;;;;;;11.28;98.80;95201.16;4407726;32;20180;-65
2022/10/01 02:20:45;;;;;;;3.23;3.07;;;;;;;11.30;98.80;95206.94;4372880;32;20191;-65
2022/10/01 02:23:16;;;;;;;2.70;2.60;;;;;;;11.35;98.37;95206.84;4380465;32;20184;-66
2022/10/01 02:25:48;;;;;;;4.13;3.63;;;;;;;11.32;98.20;95208.22;4384596;32;20210;-66
2022/10/01 02:28:19;;;;;;;3.17;2.97;;;;;;;11.26;98.11;95206.75;4370358;32;20200;-66
2022/10/01 02:30:46;;;;;;;3.07;2.87;;;;;;;11.20;98.30;95205.31;4376600;32;20196;-65
2022/10/01 02:33:14;;;;;;;3.63;3.33;;;;;;;11.16;98.50;95200.91;4391948;32;20203;-65
2022/10/01 02:35:42;;;;;;;2.70;2.50;;;;;;;11.16;98.37;95200.91;4392642;32;20208;-65
2022/10/01 02:38:11;;;;;;;3.83;3.63;;;;;;;11.23;98.41;95206.56;4365764;32;20196;-65
2022/10/01 02:40:43;;;;;;;4.23;3.83;;;;;;;11.15;98.13;95204.63;4343682;32;20192;-65
2022/10/01 02:43:18;;;;;;;2.53;2.43;;;;;;;11.19;97.85;95195.78;4387061;32;20201;-65
2022/10/01 02:45:50;;;;;;;2.30;2.20;;;;;;;11.19;97.86;95192.34;4384801;32;20191;-66
2022/10/01 02:48:16;;;;;;;2.27;2.17;;;;;;;11.21;97.62;95193.63;4390325;32;20175;-65
2022/10/01 02:50:59;;;;;;;3.50;3.20;;;;;;;11.11;97.83;95193.84;4394368;32;20192;-65
2022/10/01 02:53:41;;;;;;;3.33;3.10;;;;;;;11.21;97.84;95183.00;4379761;32;20300;-65
2022/10/01 02:56:09;;;;;;;2.17;2.07;;;;;;;11.17;97.11;95183.87;4401978;32;20198;-65
2022/10/01 02:58:35;;;;;;;2.70;2.10;;;;;;;11.08;97.39;95181.16;4374240;32;20184;-65
2022/10/01 03:01:01;;;;;;;1.57;1.57;;;;;;;11.16;97.18;95182.31;4375763;32;20184;-65
2022/10/01 03:03:29;;;;;;;1.80;1.77;;;;;;;11.28;96.01;95171.94;4359815;32;20196;-65
2022/10/01 03:05:56;;;;;;;2.33;2.13;;;;;;;11.28;95.91;95171.94;4383491;32;20184;-65
2022/10/01 03:08:22;;;;;;;1.97;1.87;;;;;;;11.20;95.82;95176.13;4347056;32;20183;-65
2022/10/01 03:10:49;;;;;;;2.30;2.20;;;;;;;11.16;96.16;95174.34;4383694;32;20276;-65
2022/10/01 03:13:15;;;;;;;2.40;2.23;;;;;;;11.16;96.14;95174.34;4399710;32;20192;-65
2022/10/01 03:15:41;;;;;;;2.97;2.77;;;;;;;11.12;96.01;95176.03;4384302;32;20195;-66
2022/10/01 03:18:09;;;;;;;2.53;2.43;;;;;;;11.15;95.72;95180.75;4381539;32;20187;-65
2022/10/01 03:20:34;;;;;;;2.63;2.53;;;;;;;11.00;96.13;95180.00;4394281;32;20183;-65
2022/10/01 03:23:01;;;;;;;1.97;1.87;;;;;;;10.82;97.06;95180.91;4388874;32;20273;-65
2022/10/01 03:25:26;;;;;;;1.77;1.57;;;;;;;10.87;97.16;95178.16;4375518;32;20273;-65
2022/10/01 03:27:54;;;;;;;2.13;2.03;;;;;;;10.83;96.76;95182.47;4386896;32;20252;-65
2022/10/01 03:30:21;;;;;;;2.23;1.90;;;;;;;10.74;97.37;95180.84;4370796;32;20176;-65
2022/10/01 03:32:46;;;;;;;1.93;1.90;;;;;;;10.64;97.81;95179.97;4395569;32;20229;-65
2022/10/01 03:35:11;;;;;;;1.60;1.60;;;;;;;10.68;97.93;95174.84;4394775;32;20185;-66
2022/10/01 03:37:38;;;;;;;1.83;1.73;;;;;;;10.66;98.07;95177.78;4407551;32;20223;-65
2022/10/01 03:40:05;;;;;;;2.43;2.33;;;;;;;10.73;97.61;95177.41;4386256;32;20200;-65
2022/10/01 03:42:31;;;;;;;2.33;2.23;;;;;;;10.87;96.81;95175.50;4369633;32;20257;-65
2022/10/01 03:44:56;;;;;;;2.67;2.57;;;;;;;10.80;96.81;95171.69;4391614;32;20231;-66
2022/10/01 03:47:23;;;;;;;1.90;1.80;;;;;;;10.72;97.23;95164.44;4402034;32;20203;-65
2022/10/01 03:49:49;;;;;;;1.60;1.50;;;;;;;10.74;96.96;95156.97;4375461;32;20233;-65
2022/10/01 03:52:14;;;;;;;1.93;1.83;;;;;;;10.62;97.38;95150.28;4372907;32;20196;-66
2022/10/01 03:54:39;;;;;;;2.00;1.90;;;;;;;10.58;97.55;95159.16;4357636;32;20260;-65
2022/10/01 03:57:08;;;;;;;1.93;1.83;;;;;;;10.47;98.21;95157.78;4392196;32;20243;-65
2022/10/01 03:59:35;;;;;;;1.93;1.83;;;;;;;10.56;98.17;95150.72;4408265;32;20197;-65
2022/10/01 04:02:02;;;;;;;1.57;1.47;;;;;;;10.54;97.91;95153.66;4416085;32;20185;-65
2022/10/01 04:04:29;;;;;;;1.57;1.57;;;;;;;10.54;98.02;95148.34;4386915;32;20181;-65
2022/10/01 04:06:57;;;;;;;12.10;2.20;;;;;;;10.69;97.07;95157.84;4360993;32;20176;-64
2022/10/01 04:09:24;;;;;;;2.27;2.17;;;;;;;10.70;96.72;95156.78;4383573;32;20195;-65
2022/10/01 04:11:49;;;;;;;2.67;2.57;;;;;;;10.67;96.57;95152.06;4377832;32;20196;-66
2022/10/01 04:14:15;;;;;;;1.47;1.47;;;;;;;10.56;96.78;95159.44;4395413;32;20192;-66
2022/10/01 04:16:40;;;;;;;2.40;2.30;;;;;;;10.39;97.52;95156.62;4389203;32;20207;-66
2022/10/01 04:19:07;;;;;;;1.90;1.80;;;;;;;10.34;97.88;95169.97;4380732;32;20207;-65
2022/10/01 04:21:35;;;;;;;1.40;1.40;;;;;;;10.37;97.49;95163.28;4382310;32;20201;-65
2022/10/01 04:24:04;;;;;;;2.17;1.93;;;;;;;10.39;96.90;95166.44;4365647;32;20271;-65
2022/10/01 04:26:30;;;;;;;3.93;2.17;;;;;;;10.39;97.24;95164.56;4393873;32;20200;-65
2022/10/01 04:28:55;;;;;;;1.63;1.63;;;;;;;10.38;97.45;95164.88;4367740;32;20238;-63
2022/10/01 04:31:23;;;;;;;1.80;1.70;;;;;;;10.44;96.92;95169.75;4387120;32;20208;-63
2022/10/01 04:33:51;;;;;;;1.30;1.30;;;;;;;10.22;97.18;95173.09;4394254;32;20254;-63
2022/10/01 04:36:19;;;;;;;1.40;1.37;;;;;;;10.33;97.13;95174.50;4395616;32;20201;-63
2022/10/01 04:38:45;;;;;;;5.00;1.77;;;;;;;10.27;97.23;95175.66;4383702;32;20208;-65
2022/10/01 04:41:10;;;;;;;1.40;1.40;;;;;;;10.43;96.37;95172.69;4386619;32;20180;-66
2022/10/01 04:43:37;;;;;;;2.23;1.93;;;;;;;10.46;96.10;95170.25;4404559;32;20207;-63
2022/10/01 04:46:03;;;;;;;1.57;1.57;;;;;;;10.35;96.18;95176.06;4373080;32;20291;-63
2022/10/01 04:48:28;;;;;;;2.93;1.20;;;;;;;10.41;96.10;95180.16;4368105;32;20251;-63
2022/10/01 04:50:54;;;;;;;1.80;1.70;;;;;;;10.23;96.13;95179.97;4394296;32;20188;-63
2022/10/01 04:53:19;;;;;;;1.57;1.47;;;;;;;10.22;95.94;95183.69;4381463;32;20279;-65
2022/10/01 04:55:46;;;;;;;1.57;1.50;;;;;;;10.35;95.82;95181.38;4401243;32;20240;-65
2022/10/01 04:58:11;;;;;;;1.60;1.50;;;;;;;10.38;95.31;95175.47;4386538;32;20196;-66
2022/10/01 05:00:38;;;;;;;1.10;1.10;;;;;;;10.40;94.85;95178.59;4407156;32;20203;-65
2022/10/01 05:03:03;;;;;;;2.23;2.13;;;;;;;10.36;95.18;95188.25;4360150;32;20287;-65
2022/10/01 05:05:31;;;;;;;1.80;1.80;;;;;;;10.39;95.23;95182.34;4390040;32;20234;-65
2022/10/01 05:07:58;;;;;;;2.30;1.43;;;;;;;10.21;95.84;95176.03;4387216;32;20189;-65
2022/10/01 05:10:23;;;;;;;1.37;1.23;;;;;;;10.31;95.83;95174.00;4386723;32;20196;-65
2022/10/01 05:12:50;;;;;;;1.30;1.30;;;;;;;10.42;95.18;95165.81;4405822;32;20222;-65
2022/10/01 05:15:16;;;;;;;1.60;1.60;;;;;;;10.37;95.14;95184.50;4382256;32;20180;-65
2022/10/01 05:17:42;;;;;;;0.63;0.63;;;;;;;10.44;94.84;95168.97;4398160;32;20187;-64
2022/10/01 05:20:14;;;;;;;1.33;1.33;;;;;;;10.53;94.13;95169.84;4393937;32;20256;-63
2022/10/01 05:22:40;;;;;;;1.00;1.00;;;;;;;10.50;94.20;95178.41;4385855;32;20188;-63
2022/10/01 05:25:09;;;;;;;1.60;1.47;;;;;;;10.56;93.86;95166.63;4393436;32;20292;-64
2022/10/01 05:27:36;;;;;;;1.67;1.53;;;;;;;10.52;93.92;95168.28;4384768;32;20207;-65
2022/10/01 05:30:04;;;;;;;1.37;1.37;;;;;;;10.55;93.41;95168.50;4386340;32;20348;-65
2022/10/01 05:32:30;;;;;;;1.77;1.67;;;;;;;10.45;93.73;95171.31;4385021;32;20287;-65
2022/10/01 05:34:56;;;;;;;1.00;1.00;;;;;;;10.58;93.60;95175.06;4382284;32;20253;-65
2022/10/01 05:37:23;;;;;;;2.00;1.90;;;;;;;10.60;93.21;95171.00;4392366;32;20192;-65
2022/10/01 05:39:50;;;;;;;0.90;0.90;;;;;;;10.66;92.81;95179.66;4394541;32;20215;-66
2022/10/01 05:42:17;;;;;;;1.03;1.03;;;;;;;10.66;92.68;95182.31;4375521;32;20263;-65
2022/10/01 05:44:46;;;;;;;1.57;1.47;;;;;;;10.62;92.87;95181.34;4386312;32;20195;-65
2022/10/01 05:47:12;;;;;;;1.73;1.63;;;;;;;10.59;93.12;95181.94;4389540;32;20193;-65
2022/10/01 05:49:43;;;;;;;1.50;1.43;;;;;;;10.65;93.23;95188.69;4370031;32;20193;-65
2022/10/01 05:52:11;;;;;;;3.63;1.40;;;;;;;10.83;92.38;95187.78;4377846;32;20184;-65
2022/10/01 05:54:37;;;;;;;3.23;1.77;;;;;;;10.66;92.60;95190.28;4395003;32;20208;-65
2022/10/01 05:57:04;;;;;;;2.07;1.20;;;;;;;10.74;92.58;95186.94;4408576;32;20192;-65
2022/10/01 05:59:31;;;;;;;1.40;1.40;;;;;;;10.71;92.69;95192.03;4395240;32;20185;-65
2022/10/01 06:01:56;;;;;;;1.57;1.47;;;;;;;10.56;92.59;95188.62;4383578;32;20299;-65
2022/10/01 06:04:23;;;;;;;1.00;1.00;;;;;;;10.61;92.85;95191.16;4378666;32;20196;-64
2022/10/01 06:06:49;;;;;;;1.20;1.20;;;;;;;10.60;93.54;95194.09;4379529;32;20242;-63
2022/10/01 06:09:15;;;;;;;2.17;2.07;;;;;;;10.53;93.58;95199.03;4398466;32;20226;-64
2022/10/01 06:11:40;;;;;;;1.13;1.13;;;;;;;10.65;93.36;95199.31;4395644;32;20191;-64
2022/10/01 06:14:06;;;;;;;1.37;1.37;;;;;;;10.68;92.90;95196.84;4381383;32;20190;-63
2022/10/01 06:16:32;;;;;;;0.97;0.97;;;;;;;10.69;92.86;95192.34;4344998;32;20428;-63
2022/10/01 06:18:57;;;;;;;1.63;1.63;;;;;;;10.82;92.26;95196.81;4361470;32;20199;-64
2022/10/01 06:21:24;;;;;;;1.80;1.70;;;;;;;10.83;92.24;95206.37;4403079;32;20203;-63
2022/10/01 06:23:49;;;;;;;3.23;1.53;;;;;;;10.90;92.01;95206.75;4382831;32;20199;-63
2022/10/01 06:26:16;;;;;;;1.37;1.37;;;;;;;11.04;91.59;95209.38;4403487;32;20199;-64
2022/10/01 06:28:42;;;;;;;1.43;1.43;;;;;;;11.02;91.71;95212.31;4377605;32;20254;-64
2022/10/01 06:31:10;;;;;;;1.60;1.60;;;;;;;11.10;91.53;95208.19;4385362;32;20184;-63
2022/10/01 06:33:36;;;;;;;1.50;1.50;;;;;;;11.25;91.10;95204.41;4399117;32;20232;-63
2022/10/01 06:36:04;;;;;;;0.97;0.97;;;;;;;10.99;91.89;95202.31;4394264;32;20184;-63
2022/10/01 06:38:31;;;;;;;1.10;1.10;;;;;;;10.87;92.67;95206.56;4382046;32;20276;-63
2022/10/01 06:41:02;;;;;;;1.90;1.80;;;;;;;11.01;92.37;95212.66;4363847;32;20168;-63
2022/10/01 06:43:30;;;;;;;1.97;1.63;;;;;;;11.12;91.82;95203.38;4391197;32;20196;-63
2022/10/01 06:46:01;;;;;;;1.70;1.30;;;;;;;10.91;92.39;95200.38;4376897;32;20184;-63
2022/10/01 06:48:29;;;;;;;1.67;1.63;;;;;;;11.06;92.49;95198.47;4378980;32;20185;-63
2022/10/01 06:50:56;;;;;;;1.90;1.53;;;;;;;10.91;92.64;95210.97;4382689;32;20237;-63
2022/10/01 06:53:24;;;;;;;1.50;1.40;;;;;;;11.02;92.74;95207.00;4413899;32;20195;-63
2022/10/01 06:55:50;;;;;;;1.40;1.40;;;;;;;11.23;92.20;95202.03;4378940;32;20295;-63
2022/10/01 06:58:19;;;;;;;1.80;1.70;;;;;;;11.28;91.76;95211.78;4403162;32;20210;-63
2022/10/01 07:00:46;;;;;;;3.60;3.30;;;;;;;11.40;91.33;95214.69;4402006;32;20190;-63
2022/10/01 07:03:21;;;;;;;1.43;1.33;;;;;;;11.34;91.13;95215.91;4378665;32;20199;-63
2022/10/01 07:05:48;;;;;;;1.03;1.03;;;;;;;11.50;90.93;95201.16;4397181;32;20184;-63
2022/10/01 07:08:18;;;;;;;1.50;1.50;;;;;;;11.50;90.47;95203.03;4396181;32;20188;-63
2022/10/01 07:10:44;;;;;;;1.70;1.60;;;;;;;11.62;90.90;95198.78;4379644;32;20185;-64
2022/10/01 07:13:16;;;;;;;1.90;1.80;;;;;;;11.51;90.75;95204.63;4387849;32;20218;-63
2022/10/01 07:15:53;;;;;;;1.07;1.07;;;;;;;11.58;90.65;95192.50;4396303;32;20232;-64
2022/10/01 07:18:19;;;;;;;1.30;1.30;;;;;;;11.43;90.88;95198.13;4393228;32;20216;-63
2022/10/01 07:20:45;;;;;;;2.70;2.50;;;;;;;11.61;90.55;95191.09;4419490;32;20188;-63
2022/10/01 07:23:13;;;;;;;0.87;0.87;;;;;;;11.61;90.70;95183.91;4381407;32;20188;-64
2022/10/01 07:25:39;;;;;;;1.23;1.23;;;;;;;11.62;90.35;95185.50;4394377;32;20191;-63
2022/10/01 07:28:14;;;;;;;5.93;1.27;;;;;;;11.75;90.31;95188.38;4359115;32;20256;-63
2022/10/01 07:30:47;;;;;;;1.20;1.20;;;;;;;11.73;89.79;95187.88;4357038;32;20203;-63
2022/10/01 07:33:17;;;;;;;1.93;1.83;;;;;;;11.87;89.12;95177.97;4409714;32;20184;-64
2022/10/01 07:35:46;;;;;;;1.33;1.30;;;;;;;11.96;88.87;95168.97;4374121;32;20248;-66
2022/10/01 07:38:12;;;;;;;1.83;1.73;;;;;;;12.01;88.67;95173.38;4378358;32;20184;-66
2022/10/01 07:40:38;;;;;;;1.20;0.73;;;;;;;11.93;89.40;95168.78;4362290;32;20192;-66
2022/10/01 07:43:04;;;;;;;0.80;0.80;;;;;;;12.00;89.22;95161.97;4416738;32;20222;-66
2022/10/01 07:45:30;;;;;;;1.33;1.33;;;;;;;12.11;88.90;95154.50;4385894;32;20211;-66
2022/10/01 07:47:57;;;;;;;0.60;0.60;;;;;;;12.11;88.67;95161.69;4387916;32;20180;-65
2022/10/01 07:50:25;;;;;;;1.10;1.10;;;;;;;12.14;89.03;95167.19;4389060;32;20207;-66
2022/10/01 07:52:55;;;;;;;1.17;1.07;;;;;;;12.12;88.69;95164.03;4406903;32;20207;-66
2022/10/01 07:55:23;;;;;;;1.27;1.27;;;;;;;12.22;87.89;95161.13;4386458;32;20192;-63
2022/10/01 07:57:51;;;;;;;0.60;0.60;;;;;;;12.21;87.13;95164.88;4363055;32;20196;-64
2022/10/01 08:00:19;;;;;;;0.83;0.83;;;;;;;12.25;86.37;95165.03;4409598;32;20231;-63
2022/10/01 08:02:54;;;;;;;0.57;0.57;;;;;;;12.23;86.34;95168.00;4380721;32;20303;-64
2022/10/01 08:05:27;;;;;;;0.53;0.50;;;;;;;12.20;86.02;95159.84;4392587;32;20247;-63
2022/10/01 08:07:59;;;;;;;1.87;0.60;;;;;;;12.34;85.06;95150.66;4380953;32;20197;-63
2022/10/01 08:10:25;;;;;;;0.40;0.40;;;;;;;12.35;85.32;95152.25;4362189;32;20200;-63
2022/10/01 08:12:50;;;;;;;0.60;0.60;;;;;;;12.43;84.27;95156.03;4416962;32;20206;-62
2022/10/01 08:15:17;;;;;;;0.77;0.77;;;;;;;12.37;84.26;95159.91;4379477;32;20233;-64
2022/10/01 08:17:43;;;;;;;0.80;0.80;;;;;;;12.53;84.23;95152.28;4376777;32;20193;-64
2022/10/01 08:20:11;;;;;;;0.43;0.43;;;;;;;12.55;83.88;95150.88;4385900;32;20195;-63
2022/10/01 08:22:39;;;;;;;0.30;0.30;;;;;;;12.51;84.01;95146.50;4369351;32;20213;-63
2022/10/01 08:25:06;;;;;;;0.40;0.40;;;;;;;12.42;82.86;95141.16;4397533;32;20184;-64
2022/10/01 08:27:31;;;;;;;0.70;0.60;;;;;;;12.51;82.72;95138.50;4372055;32;20345;-63
2022/10/01 08:29:58;;;;;;;2.07;1.00;;;;;;;12.48;82.66;95145.22;4375883;32;20196;-63
2022/10/01 08:32:29;;;;;;;0.30;0.30;;;;;;;12.51;82.92;95143.81;4395787;32;20184;-63
2022/10/01 08:34:58;;;;;;;0.93;0.93;;;;;;;12.60;82.23;95149.97;4390098;32;20309;-64
2022/10/01 08:37:28;;;;;;;0.30;0.30;;;;;;;12.32;82.62;95147.53;4369975;32;20197;-63
2022/10/01 08:39:54;;;;;;;0.40;0.30;;;;;;;12.39;83.40;95142.56;4380034;32;20202;-63
2022/10/01 08:42:58;;;;;;;0.47;0.47;;;;;;;12.49;82.93;95144.13;4352128;32;20281;-64
2022/10/01 08:45:37;;;;;;;0.80;0.70;;;;;;;12.49;83.17;95135.38;4382975;32;20274;-64
2022/10/01 08:48:35;;;;;;;0.20;0.20;;;;;;;12.57;83.49;95134.62;4373062;32;20195;-63
2022/10/01 08:51:37;;;;;;;0.00;0.00;;;;;;;12.65;82.60;95131.19;4321698;32;20182;-63
2022/10/01 08:54:09;;;;;;;5.83;0.73;;;;;;;12.70;82.40;95125.72;4395150;32;20191;-63
2022/10/01 08:56:40;;;;;;;0.83;0.53;;;;;;;12.68;82.41;95123.34;4400594;32;20215;-64
2022/10/01 08:59:21;;;;;;;0.30;0.30;;;;;;;12.53;83.11;95128.34;4391435;32;20192;-63
2022/10/01 09:01:48;;;;;;;11.63;0.97;;;;;;;12.61;82.46;95133.69;4385392;32;20258;-63
2022/10/01 09:04:14;;;;;;;0.70;0.70;;;;;;;12.71;82.33;95129.94;4376888;32;20245;-63
2022/10/01 09:06:40;;;;;;;0.27;0.27;;;;;;;12.73;82.24;95123.22;4406257;32;20200;-64
2022/10/01 09:09:23;;;;;;;0.33;0.30;;;;;;;12.65;82.71;95137.31;4361800;32;20251;-63
2022/10/01 09:11:57;;;;;;;0.77;0.50;;;;;;;12.66;81.63;95133.56;4407952;32;20180;-63
2022/10/01 09:14:42;;;;;;;0.33;0.33;;;;;;;12.58;81.24;95126.31;4389697;32;20183;-63
2022/10/01 09:17:18;;;;;;;0.57;0.57;;;;;;;12.67;80.97;95118.38;4404312;32;20221;-63
2022/10/01 09:20:03;;;;;;;3.10;0.57;;;;;;;12.68;81.76;95109.25;4388383;32;20245;-64
2022/10/01 09:23:02;;;;;;;0.23;0.23;;;;;;;12.59;81.56;95116.47;4395453;32;20220;-64
2022/10/01 09:25:33;;;;;;;1.13;0.63;;;;;;;12.72;82.32;95100.34;4380926;32;20206;-63
2022/10/01 09:28:01;;;;;;;0.83;0.83;;;;;;;12.76;81.18;95111.16;4396370;32;20196;-63
2022/10/01 09:30:28;;;;;;;1.00;1.00;;;;;;;12.83;81.98;95108.81;4355646;32;20214;-64
2022/10/01 09:33:01;;;;;;;0.50;0.50;;;;;;;12.73;81.68;95119.75;4367456;32;20200;-64
2022/10/01 09:35:55;;;;;;;0.40;0.40;;;;;;;12.91;80.63;95117.91;4365769;32;20192;-63
2022/10/01 09:38:44;;;;;;;3.30;1.37;;;;;;;12.91;79.84;95121.34;4394273;32;20259;-64
2022/10/01 09:41:13;;;;;;;0.60;0.60;;;;;;;12.87;78.92;95114.31;4387022;32;20183;-63
2022/10/01 09:43:42;;;;;;;0.83;0.83;;;;;;;13.01;78.88;95121.03;4397525;32;20179;-64
2022/10/01 09:46:13;;;;;;;2.33;1.37;;;;;;;12.92;78.38;95130.13;4397325;32;20263;-63
2022/10/01 09:48:48;;;;;;;0.83;0.83;;;;;;;12.77;80.01;95131.37;4391363;32;20239;-64
2022/10/01 09:51:31;;;;;;;0.70;0.70;;;;;;;12.75;79.93;95128.22;4402340;32;20225;-63
2022/10/01 09:54:15;;;;;;;2.10;0.57;;;;;;;12.81;79.79;95120.88;4383363;32;20196;-63
2022/10/01 09:57:10;;;;;;;1.17;0.90;;;;;;;12.78;80.96;95116.97;4358321;32;20206;-64
2022/10/01 10:00:10;;;;;;;1.03;0.93;;;;;;;12.73;81.79;95119.75;4346224;32;20193;-64
2022/10/01 10:02:43;;;;;;;5.17;1.13;;;;;;;12.66;82.05;95114.13;4385566;32;20192;-64
2022/10/01 10:05:21;;;;;;;3.97;1.17;;;;;;;12.75;82.92;95109.59;4386347;32;20180;-64
2022/10/01 10:07:54;;;;;;;1.53;1.40;;;;;;;12.85;82.72;95105.84;4374479;32;20207;-64
2022/10/01 10:10:34;;;;;;;5.13;2.83;;;;;;;12.74;84.62;95110.69;4393476;32;20242;-65
2022/10/01 10:13:16;;;;;;;0.53;0.47;;;;;;;12.61;85.19;95111.62;4379929;32;20237;-64
2022/10/01 10:15:51;;;;;;;0.50;0.50;;;;;;;12.57;86.64;95106.13;4408276;32;20206;-64
2022/10/01 10:18:37;;;;;;;2.90;0.87;;;;;;;12.48;86.62;95115.19;4386170;32;20196;-64
2022/10/01 10:21:25;;;;;;;0.73;0.63;;;;;;;12.54;86.87;95121.94;4385302;32;20192;-64
2022/10/01 10:24:02;;;;;;;0.67;0.67;;;;;;;12.52;87.95;95121.44;4417469;32;20180;-64
2022/10/01 10:26:37;;;;;;;0.63;0.63;;;;;;;12.49;88.57;95124.72;4375843;32;20184;-64
2022/10/01 10:29:07;;;;;;;0.20;0.20;;;;;;;12.44;89.06;95124.88;4377457;32;20187;-64
2022/10/01 10:31:40;;;;;;;1.40;0.97;;;;;;;12.28;89.91;95135.16;4357610;32;20204;-63
2022/10/01 10:34:12;;;;;;;0.50;0.50;;;;;;;12.25;91.20;95125.94;4390598;32;20202;-64
2022/10/01 10:36:39;;;;;;;0.27;0.27;;;;;;;12.24;91.41;95124.38;4380433;32;20219;-63
2022/10/01 10:39:24;;;;;;;0.90;0.90;;;;;;;12.26;91.62;95121.41;4353618;32;20180;-64
2022/10/01 10:41:51;;;;;;;1.03;0.93;;;;;;;12.30;92.57;95119.66;4405843;32;20239;-64
2022/10/01 10:44:20;;;;;;;0.50;0.50;;;;;;;12.22;92.87;95121.22;4352694;32;20188;-63
2022/10/01 10:46:59;;;;;;;0.70;0.70;;;;;;;12.09;93.61;95126.62;4376043;32;20248;-63
2022/10/01 10:49:39;;;;;;;5.97;1.90;;;;;;;11.90;94.50;95114.38;4386173;32;20222;-65
2022/10/01 10:52:18;;;;;;;0.73;0.73;;;;;;;11.94;96.50;95119.84;4396098;32;20200;-66
2022/10/01 10:54:52;;;;;;;0.80;0.80;;;;;;;12.00;95.23;95119.44;4383456;32;20199;-64
2022/10/01 10:57:23;;;;;;;0.97;0.30;;;;;;;11.98;95.42;95128.78;4387321;32;20333;-64
2022/10/01 11:00:01;;;;;;;0.60;0.60;;;;;;;12.03;96.09;95126.00;4389087;32;20219;-64
2022/10/01 11:02:32;;;;;;;0.67;0.67;;;;;;;12.00;96.64;95134.59;4359473;32;20184;-64
2022/10/01 11:05:02;;;;;;;1.00;1.00;;;;;;;11.94;97.02;95130.50;4370620;32;20185;-64
2022/10/01 11:07:29;;;;;;;0.50;0.50;;;;;;;12.02;97.43;95132.41;4373879;32;20188;-64
2022/10/01 11:10:12;;;;;;;0.50;0.50;;;;;;;11.97;97.55;95135.19;4383174;32;20172;-64
2022/10/01 11:13:13;;;;;;;0.27;0.27;;;;;;;11.79;98.22;95131.69;4360669;32;20193;-64
2022/10/01 11:16:00;;;;;;;1.27;0.50;;;;;;;11.85;98.74;95138.41;4390346;32;20192;-64
2022/10/01 11:18:46;;;;;;;1.73;1.10;;;;;;;11.84;98.48;95136.88;4380051;32;20251;-63
2022/10/01 11:21:27;;;;;;;1.70;0.87;;;;;;;11.83;98.49;95139.84;4400485;32;20179;-65
2022/10/01 11:24:26;;;;;;;0.60;0.60;;;;;;;11.76;99.33;95150.06;4400422;32;20211;-64
2022/10/01 11:27:13;;;;;;;0.40;0.20;;;;;;;11.76;99.37;95155.38;4414855;32;20196;-64
2022/10/01 11:30:19;;;;;;;0.20;0.20;;;;;;;11.68;99.28;95157.69;4373948;32;20192;-64
2022/10/01 11:33:09;;;;;;;0.50;0.50;;;;;;;11.85;98.58;95156.22;4357323;32;20199;-64
2022/10/01 11:36:06;;;;;;;0.60;0.53;;;;;;;11.80;99.21;95167.81;4409501;32;20196;-64
2022/10/01 11:38:59;;;;;;;0.20;0.20;;;;;;;11.65;99.70;95160.94;4384351;32;20301;-64
2022/10/01 11:41:37;;;;;;;3.20;0.90;;;;;;;11.64;100.00;95147.97;4389595;32;20185;-64
2022/10/01 11:44:43;;;;;;;1.03;0.97;;;;;;;11.73;100.00;95150.69;4384467;32;20227;-64
2022/10/01 11:47:29;;;;;;;1.23;0.50;;;;;;;11.84;100.00;95147.50;4354873;32;20188;-64
2022/10/01 11:50:24;;;;;;;0.83;0.83;;;;;;;11.93;100.00;95148.31;4385166;32;20191;-64
2022/10/01 11:52:59;;;;;;;0.60;0.60;;;;;;;11.80;99.79;95151.06;4400008;32;20298;-64
2022/10/01 11:59:01;;;;;;;0.43;0.43;;;;;;;11.58;100.00;95165.91;4383636;32;20210;-65
2022/10/01 12:01:40;;;;;;;0.10;0.10;;;;;;;11.51;100.00;95170.88;4379917;32;20177;-64